Time;durP1;ratioP1;P1;durP2;ratioP2;P2;SDS_P1;SDS_P2;PMS_P1;PMS_P2;Temp;Humidity;BMP_temperature;BMP_pressure;BME280_temperature;BME280_humidity;BME280_pressure;Samples;Min_cycle;Max_cycle;Signal;HPM_P1;HPM_P2
2023/10/14 00:02:22;;;;;;;14.50;2.33;;;10.50;99.90;;;;;;5055360;28;20025;-49
2023/10/14 00:04:48;;;;;;;10.10;2.50;;;10.50;99.90;;;;;;5055188;28;20121;-47
2023/10/14 00:07:17;;;;;;;10.07;1.70;;;10.50;99.90;;;;;;5054599;28;20056;-47
2023/10/14 00:09:43;;;;;;;14.82;2.15;;;10.50;99.90;;;;;;5055246;28;20037;-47
2023/10/14 00:12:13;;;;;;;17.55;3.15;;;10.50;99.90;;;;;;5055166;28;20517;-46
2023/10/14 00:14:43;;;;;;;11.52;2.15;;;10.50;99.90;;;;;;5055038;28;20048;-46
2023/10/14 00:17:16;;;;;;;11.95;2.05;;;10.50;99.90;;;;;;5055105;28;20094;-48
2023/10/14 00:19:42;;;;;;;9.75;1.92;;;10.50;99.90;;;;;;5055038;28;20112;-46
2023/10/14 00:22:08;;;;;;;14.13;2.40;;;10.50;99.90;;;;;;5054509;28;20118;-47
2023/10/14 00:24:37;;;;;;;14.45;1.85;;;10.50;99.90;;;;;;5054879;28;20056;-46
2023/10/14 00:27:07;;;;;;;8.70;1.90;;;10.40;99.90;;;;;;5054858;28;20060;-46
2023/10/14 00:29:34;;;;;;;6.50;1.73;;;10.40;99.90;;;;;;5053685;28;20122;-47
2023/10/14 00:32:02;;;;;;;13.82;2.10;;;10.40;99.90;;;;;;5054750;28;20112;-46
2023/10/14 00:34:29;;;;;;;13.90;2.25;;;10.40;99.90;;;;;;5054487;28;20467;-47
2023/10/14 00:36:58;;;;;;;8.60;2.10;;;10.40;99.90;;;;;;5054589;28;20033;-47
2023/10/14 00:39:26;;;;;;;6.25;1.30;;;10.30;99.90;;;;;;5053987;28;20492;-47
2023/10/14 00:41:53;;;;;;;10.65;2.22;;;10.30;99.90;;;;;;5054824;28;20036;-46
2023/10/14 00:44:20;;;;;;;9.77;1.30;;;10.30;99.90;;;;;;5053531;28;20037;-46
2023/10/14 00:46:48;;;;;;;8.38;1.77;;;10.30;99.90;;;;;;5054499;28;20117;-48
2023/10/14 00:49:15;;;;;;;7.65;1.70;;;10.30;99.90;;;;;;5053651;28;20036;-47
2023/10/14 00:51:44;;;;;;;11.07;2.15;;;10.30;99.90;;;;;;5053565;28;20048;-47
2023/10/14 00:54:25;;;;;;;18.30;2.17;;;10.30;99.90;;;;;;5053499;28;20037;-48
2023/10/14 00:56:51;;;;;;;15.98;2.58;;;10.20;99.90;;;;;;5053765;28;20044;-47
2023/10/14 00:59:18;;;;;;;16.42;2.22;;;10.20;99.90;;;;;;5054513;28;20029;-46
2023/10/14 01:01:55;;;;;;;14.50;2.38;;;10.20;99.90;;;;;;5053424;28;20029;-47
2023/10/14 01:04:22;;;;;;;10.48;2.10;;;10.30;99.90;;;;;;5054309;28;20043;-50
2023/10/14 01:07:04;;;;;;;9.85;1.95;;;10.30;99.90;;;;;;5054174;28;20044;-50
2023/10/14 01:09:48;;;;;;;10.35;2.30;;;10.30;99.90;;;;;;5054579;28;20041;-50
2023/10/14 01:14:44;;;;;;;13.77;2.22;;;10.30;99.90;;;;;;5054436;28;20393;-49
2023/10/14 01:17:15;;;;;;;14.57;2.08;;;10.30;99.90;;;;;;5054747;28;20021;-51
2023/10/14 01:19:44;;;;;;;10.82;2.25;;;10.20;99.90;;;;;;5054418;28;20116;-50
2023/10/14 01:22:12;;;;;;;11.20;2.03;;;10.20;99.90;;;;;;5054406;28;20104;-50
2023/10/14 01:24:39;;;;;;;13.27;2.13;;;10.20;99.90;;;;;;5053129;28;20556;-50
2023/10/14 01:27:06;;;;;;;8.13;1.80;;;10.20;99.90;;;;;;5053250;28;20061;-50
2023/10/14 01:29:39;;;;;;;15.48;2.35;;;10.20;99.90;;;;;;5054303;28;20094;-50
2023/10/14 01:32:23;;;;;;;15.18;2.25;;;10.20;99.90;;;;;;5054322;28;20024;-51
2023/10/14 01:34:55;;;;;;;12.70;1.80;;;10.10;99.90;;;;;;5053249;28;20044;-49
2023/10/14 01:37:21;;;;;;;9.52;2.10;;;10.10;99.90;;;;;;5054169;28;20139;-50
2023/10/14 01:39:50;;;;;;;16.20;2.17;;;10.20;99.90;;;;;;5053824;28;20124;-50
2023/10/14 01:42:17;;;;;;;8.00;1.88;;;10.20;99.90;;;;;;5053879;28;20462;-50
2023/10/14 01:44:44;;;;;;;6.93;1.70;;;10.20;99.90;;;;;;5052989;28;20049;-50
2023/10/14 01:47:09;;;;;;;15.95;2.53;;;10.10;99.90;;;;;;5054122;28;20049;-50
2023/10/14 01:49:36;;;;;;;16.80;2.28;;;10.10;99.90;;;;;;5054140;28;20354;-51
2023/10/14 01:52:06;;;;;;;10.75;2.22;;;10.10;99.90;;;;;;5057419;28;20051;-50
2023/10/14 01:54:32;;;;;;;10.57;1.75;;;10.10;99.90;;;;;;5057308;28;20369;-49
2023/10/14 01:56:59;;;;;;;16.75;3.08;;;10.10;99.90;;;;;;5057182;28;20060;-50
2023/10/14 01:59:27;;;;;;;9.55;2.60;;;10.10;99.90;;;;;;5057614;28;20037;-50
2023/10/14 02:01:57;;;;;;;12.60;1.85;;;10.10;99.90;;;;;;5056422;28;20112;-51
2023/10/14 02:04:23;;;;;;;7.10;2.10;;;10.00;99.90;;;;;;5057395;28;20098;-50
2023/10/14 02:07:13;;;;;;;12.05;2.28;;;10.00;99.90;;;;;;5057224;28;20061;-49
2023/10/14 02:09:35;;;;;;;14.35;2.20;;;10.00;99.90;;;;;;5057309;28;20049;-48
2023/10/14 02:12:01;;;;;;;7.93;1.70;;;10.00;99.90;;;;;;5056886;28;20033;-47
2023/10/14 02:14:27;;;;;;;9.43;2.08;;;10.00;99.90;;;;;;5057197;28;20508;-50
2023/10/14 02:16:54;;;;;;;12.02;2.22;;;10.00;99.90;;;;;;5057101;28;20421;-50
2023/10/14 02:19:36;;;;;;;8.80;1.98;;;10.00;99.90;;;;;;5056535;28;20036;-47
2023/10/14 02:22:02;;;;;;;8.95;1.73;;;10.00;99.90;;;;;;5057223;28;20037;-49
2023/10/14 02:24:28;;;;;;;10.77;1.90;;;9.90;99.90;;;;;;5055820;28;20453;-47
2023/10/14 02:26:57;;;;;;;14.27;1.67;;;10.00;99.90;;;;;;5056780;28;20054;-47
2023/10/14 02:29:24;;;;;;;12.05;2.05;;;10.00;99.90;;;;;;5057044;28;20037;-48
2023/10/14 02:31:50;;;;;;;9.77;1.65;;;10.00;99.90;;;;;;5057077;28;20047;-51
2023/10/14 02:34:15;;;;;;;10.20;1.90;;;10.00;99.90;;;;;;5055629;28;20072;-50
2023/10/14 02:36:50;;;;;;;10.40;1.80;;;9.90;99.90;;;;;;5056713;28;20061;-50
2023/10/14 02:39:26;;;;;;;10.65;1.75;;;9.90;99.90;;;;;;5055973;28;20044;-51
2023/10/14 02:44:32;;;;;;;5.75;1.30;;;9.90;99.90;;;;;;5056507;28;20040;-51
2023/10/14 02:47:05;;;;;;;6.93;1.10;;;9.90;99.90;;;;;;5055696;28;20037;-48
2023/10/14 02:49:42;;;;;;;5.72;1.35;;;9.90;99.90;;;;;;5057166;28;20111;-50
2023/10/14 02:52:12;;;;;;;5.70;1.00;;;9.90;99.90;;;;;;5055585;28;20041;-50
2023/10/14 02:54:45;;;;;;;5.47;1.10;;;9.90;99.90;;;;;;5056484;28;20033;-51
2023/10/14 02:57:28;;;;;;;8.23;1.20;;;9.90;99.90;;;;;;5056516;28;20033;-51
2023/10/14 02:59:57;;;;;;;4.82;1.13;;;9.80;99.90;;;;;;5056488;28;20039;-46
2023/10/14 03:07:33;;;;;;;4.88;1.10;;;9.80;99.90;;;;;;5056152;28;20053;-46
2023/10/14 03:10:10;;;;;;;5.82;1.33;;;9.70;99.90;;;;;;5056277;28;20041;-51
2023/10/14 03:12:39;;;;;;;6.75;1.13;;;9.70;99.90;;;;;;5055949;28;20098;-50
2023/10/14 03:15:18;;;;;;;8.73;1.20;;;9.70;99.90;;;;;;5055581;28;20033;-49
2023/10/14 03:18:01;;;;;;;5.30;1.17;;;9.70;99.90;;;;;;5056160;28;20041;-47
2023/10/14 03:23:18;;;;;;;4.43;1.00;;;9.80;99.90;;;;;;5054857;28;20068;-50
2023/10/14 03:25:51;;;;;;;6.65;1.23;;;9.90;99.90;;;;;;5056085;28;20033;-51
2023/10/14 03:28:19;;;;;;;4.80;1.15;;;10.00;99.90;;;;;;5055792;28;20033;-48
2023/10/14 03:30:55;;;;;;;6.28;1.23;;;10.00;99.90;;;;;;5055602;28;20044;-50
2023/10/14 03:33:21;;;;;;;5.60;1.00;;;10.10;99.90;;;;;;5055924;28;20037;-49
2023/10/14 03:35:56;;;;;;;7.53;1.20;;;10.10;99.90;;;;;;5055866;28;20033;-49
2023/10/14 03:41:21;;;;;;;3.70;0.75;;;10.00;99.90;;;;;;5054607;28;20351;-49
2023/10/14 03:43:58;;;;;;;1.85;0.85;;;10.00;99.90;;;;;;5055712;28;20037;-50
2023/10/14 03:46:44;;;;;;;4.82;0.80;;;9.90;99.90;;;;;;5055491;28;20044;-49
2023/10/14 03:49:20;;;;;;;8.27;0.98;;;9.80;99.90;;;;;;5055428;28;20477;-49
2023/10/14 03:51:47;;;;;;;3.97;1.50;;;9.80;99.90;;;;;;5055604;28;20029;-50
2023/10/14 03:54:19;;;;;;;5.40;0.98;;;9.70;99.90;;;;;;5055393;28;20080;-49
2023/10/14 03:56:45;;;;;;;3.33;1.23;;;9.70;99.90;;;;;;5055340;28;20044;-47
2023/10/14 03:59:18;;;;;;;4.32;1.13;;;9.70;99.90;;;;;;5054882;28;20097;-48
2023/10/14 04:01:44;;;;;;;3.05;0.98;;;9.70;99.90;;;;;;5054929;28;20039;-50
2023/10/14 04:04:23;;;;;;;5.28;1.00;;;9.70;99.90;;;;;;5055423;28;20417;-48
2023/10/14 04:09:37;;;;;;;5.65;1.30;;;9.60;99.90;;;;;;5055173;28;20033;-51
2023/10/14 04:12:08;;;;;;;10.88;1.95;;;9.60;99.90;;;;;;5055693;28;20345;-51
2023/10/14 04:14:37;;;;;;;4.53;1.40;;;9.50;99.90;;;;;;5054040;28;20043;-51
2023/10/14 04:17:10;;;;;;;5.65;1.40;;;9.50;99.90;;;;;;5055014;28;20112;-50
2023/10/14 04:22:27;;;;;;;5.22;1.00;;;9.40;99.90;;;;;;5055149;28;20029;-49
2023/10/14 04:25:07;;;;;;;5.80;1.17;;;9.50;99.90;;;;;;5054950;28;20033;-50
2023/10/14 04:27:36;;;;;;;5.97;1.35;;;9.60;99.90;;;;;;5055050;28;20083;-47
2023/10/14 04:30:13;;;;;;;7.73;1.43;;;9.70;99.90;;;;;;5054938;28;20040;-48
2023/10/14 04:33:04;;;;;;;9.98;1.10;;;9.70;99.90;;;;;;5054627;28;20022;-50
2023/10/14 04:35:33;;;;;;;8.10;1.23;;;9.70;99.90;;;;;;5054787;28;20040;-50
2023/10/14 04:38:13;;;;;;;6.03;1.00;;;9.60;99.90;;;;;;5053710;28;20039;-50
2023/10/14 04:40:39;;;;;;;5.03;1.20;;;9.60;99.90;;;;;;5054708;28;20033;-50
2023/10/14 04:45:45;;;;;;;8.90;1.40;;;9.60;99.90;;;;;;5054852;28;20120;-50
2023/10/14 04:48:16;;;;;;;6.43;0.90;;;9.60;99.90;;;;;;5055012;28;20037;-49
2023/10/14 04:50:44;;;;;;;5.55;1.65;;;9.50;99.90;;;;;;5054657;28;20116;-50
2023/10/14 04:53:13;;;;;;;7.85;1.60;;;9.50;99.90;;;;;;5054505;28;20087;-50
2023/10/14 04:55:43;;;;;;;8.43;1.38;;;9.40;99.90;;;;;;5054582;28;20442;-47
2023/10/14 05:00:41;;;;;;;9.38;1.50;;;9.20;99.90;;;;;;5054292;28;19913;-48
2023/10/14 05:03:19;;;;;;;7.82;1.40;;;9.10;99.90;;;;;;5054226;28;20094;-50
2023/10/14 05:05:46;;;;;;;6.45;1.40;;;9.10;99.90;;;;;;5053121;28;20132;-48
2023/10/14 05:08:21;;;;;;;7.30;1.30;;;9.00;99.90;;;;;;5053503;28;20033;-50
2023/10/14 05:10:50;;;;;;;7.88;1.90;;;8.90;99.90;;;;;;5053589;28;20377;-50
2023/10/14 05:13:16;;;;;;;5.15;1.70;;;8.80;99.90;;;;;;5054437;28;20029;-50
2023/10/14 05:15:45;;;;;;;6.18;1.08;;;8.80;99.90;;;;;;5054497;28;20114;-48
2023/10/14 05:18:17;;;;;;;9.57;1.43;;;8.70;99.90;;;;;;5054042;28;20083;-49
2023/10/14 05:23:24;;;;;;;6.45;1.50;;;8.60;99.90;;;;;;5054332;28;20025;-49
2023/10/14 05:25:56;;;;;;;7.03;1.13;;;8.70;99.90;;;;;;5054770;28;20075;-51
2023/10/14 05:28:29;;;;;;;6.05;1.40;;;8.80;99.90;;;;;;5058142;28;20029;-49
2023/10/14 05:30:57;;;;;;;7.28;1.50;;;8.80;99.90;;;;;;5058119;28;20355;-50
2023/10/14 05:33:22;;;;;;;5.10;1.58;;;8.90;99.90;;;;;;5058139;28;20115;-50
2023/10/14 05:35:48;;;;;;;8.35;1.50;;;8.90;99.90;;;;;;5058164;28;20075;-49
2023/10/14 05:38:15;;;;;;;8.25;1.65;;;8.90;99.90;;;;;;5057611;28;20021;-49
2023/10/14 05:40:41;;;;;;;6.60;1.15;;;9.00;99.90;;;;;;5057944;28;20040;-49
2023/10/14 05:43:07;;;;;;;7.40;1.80;;;9.00;99.90;;;;;;5057713;28;20056;-50
2023/10/14 05:45:36;;;;;;;8.80;1.75;;;9.00;99.90;;;;;;5057808;28;20442;-47
2023/10/14 05:48:07;;;;;;;5.70;1.35;;;9.00;99.90;;;;;;5057780;28;20049;-49
2023/10/14 05:50:35;;;;;;;5.80;1.50;;;9.00;99.90;;;;;;5056889;28;20037;-49
2023/10/14 05:53:01;;;;;;;8.00;1.30;;;9.00;99.90;;;;;;5057600;28;20044;-48
2023/10/14 05:55:29;;;;;;;8.10;1.63;;;9.00;99.90;;;;;;5057502;28;20029;-49
2023/10/14 05:57:58;;;;;;;6.30;1.58;;;9.00;99.90;;;;;;5057554;28;20021;-50
2023/10/14 06:00:25;;;;;;;3.83;0.85;;;9.00;99.90;;;;;;5057526;28;20037;-50
2023/10/14 06:02:52;;;;;;;5.78;1.50;;;8.90;99.90;;;;;;5057279;28;20032;-49
2023/10/14 06:05:23;;;;;;;6.97;1.30;;;9.00;99.90;;;;;;5057171;28;20094;-48
2023/10/14 06:07:49;;;;;;;5.30;1.40;;;9.00;99.90;;;;;;5058076;28;20076;-47
2023/10/14 06:10:20;;;;;;;3.83;1.10;;;8.90;99.90;;;;;;5056174;28;20078;-48
2023/10/14 06:12:47;;;;;;;3.40;1.25;;;8.90;99.90;;;;;;5057355;28;20454;-47
2023/10/14 06:15:17;;;;;;;8.73;1.30;;;8.90;99.90;;;;;;5057125;28;20116;-47
2023/10/14 06:17:47;;;;;;;6.88;1.13;;;8.90;99.90;;;;;;5057172;28;20025;-46
2023/10/14 06:20:16;;;;;;;7.20;1.43;;;8.80;99.90;;;;;;5057201;28;20040;-47
2023/10/14 06:22:42;;;;;;;8.65;1.48;;;8.80;99.90;;;;;;5056174;28;20287;-47
2023/10/14 06:25:08;;;;;;;6.00;1.00;;;8.80;99.90;;;;;;5057229;28;20044;-47
2023/10/14 06:27:34;;;;;;;5.95;1.40;;;8.80;99.90;;;;;;5057056;28;20029;-46
2023/10/14 06:29:59;;;;;;;6.93;2.03;;;8.70;99.90;;;;;;5056934;28;20460;-50
2023/10/14 06:32:25;;;;;;;16.38;1.70;;;8.70;99.90;;;;;;5056914;28;20517;-47
2023/10/14 06:35:02;;;;;;;7.35;1.30;;;8.70;99.90;;;;;;5056782;28;20457;-46
2023/10/14 06:37:28;;;;;;;5.47;1.20;;;8.70;99.90;;;;;;5056300;28;20045;-46
2023/10/14 06:39:56;;;;;;;8.20;1.67;;;8.60;99.90;;;;;;5057319;28;20025;-50
2023/10/14 06:42:22;;;;;;;9.45;1.70;;;8.60;99.90;;;;;;5056492;28;20056;-50
2023/10/14 06:44:48;;;;;;;5.38;2.20;;;8.60;99.90;;;;;;5056557;28;20437;-48
2023/10/14 06:47:14;;;;;;;6.28;2.30;;;8.60;99.90;;;;;;5056506;28;20028;-51
2023/10/14 06:49:41;;;;;;;5.43;1.25;;;8.60;99.90;;;;;;5056579;28;20359;-50
2023/10/14 06:52:14;;;;;;;6.25;1.42;;;8.60;99.90;;;;;;5056461;28;20112;-50
2023/10/14 06:54:41;;;;;;;18.48;12.40;;;8.60;99.90;;;;;;5056308;28;20362;-50
2023/10/14 06:57:09;;;;;;;4.55;1.73;;;8.60;99.90;;;;;;5056352;28;20025;-50
2023/10/14 06:59:38;;;;;;;5.18;1.40;;;8.60;99.90;;;;;;5056367;28;20020;-50
2023/10/14 07:02:04;;;;;;;9.85;2.47;;;8.70;99.90;;;;;;5056347;28;20051;-51
2023/10/14 07:04:29;;;;;;;7.30;1.30;;;8.70;99.90;;;;;;5056422;28;20496;-50
2023/10/14 07:06:58;;;;;;;4.43;1.30;;;8.70;99.90;;;;;;5055950;28;20056;-48
2023/10/14 07:09:27;;;;;;;5.68;1.50;;;8.70;99.90;;;;;;5056087;28;20458;-47
2023/10/14 07:11:55;;;;;;;6.25;1.25;;;8.70;99.90;;;;;;5055582;28;20033;-48
2023/10/14 07:14:21;;;;;;;8.45;1.60;;;8.70;99.90;;;;;;5056023;28;20029;-47
2023/10/14 07:16:46;;;;;;;7.13;1.55;;;8.70;99.90;;;;;;5055905;28;20159;-47
2023/10/14 07:19:12;;;;;;;10.73;1.65;;;8.70;99.90;;;;;;5055979;28;20029;-47
2023/10/14 07:21:38;;;;;;;8.85;2.28;;;8.80;99.90;;;;;;5056028;28;20044;-47
2023/10/14 07:24:07;;;;;;;10.05;1.95;;;8.80;99.90;;;;;;5055822;28;20041;-50
2023/10/14 07:26:39;;;;;;;10.90;1.55;;;8.90;99.90;;;;;;5055786;28;20033;-47
2023/10/14 07:29:05;;;;;;;5.13;1.25;;;9.00;99.90;;;;;;5055991;28;20358;-46
2023/10/14 07:31:31;;;;;;;9.48;2.03;;;9.10;99.90;;;;;;5055738;28;20037;-46
2023/10/14 07:34:02;;;;;;;10.75;1.70;;;9.50;99.90;;;;;;5054469;28;20029;-47
2023/10/14 07:36:29;;;;;;;10.70;2.10;;;10.10;99.90;;;;;;5055682;28;20033;-50
2023/10/14 07:39:02;;;;;;;7.45;1.85;;;10.80;99.90;;;;;;5055064;28;20048;-48
2023/10/14 07:41:31;;;;;;;7.70;1.33;;;11.50;99.90;;;;;;5055480;28;20449;-49
2023/10/14 07:43:56;;;;;;;4.88;1.35;;;11.70;99.90;;;;;;5054987;28;20033;-49
2023/10/14 07:46:23;;;;;;;9.18;1.55;;;11.70;99.90;;;;;;5054081;28;20037;-50
2023/10/14 07:48:53;;;;;;;7.38;1.73;;;11.50;99.90;;;;;;5055010;28;20035;-50
2023/10/14 07:51:18;;;;;;;6.00;1.65;;;11.80;99.90;;;;;;5055320;28;20068;-47
2023/10/14 07:53:44;;;;;;;10.25;2.35;;;12.30;99.90;;;;;;5055271;28;20071;-50
2023/10/14 07:56:10;;;;;;;9.65;1.67;;;12.80;99.90;;;;;;5055270;28;20033;-47
2023/10/14 07:58:36;;;;;;;10.27;1.80;;;13.20;99.90;;;;;;5055134;28;20036;-51
2023/10/14 08:01:06;;;;;;;9.98;2.00;;;13.60;99.90;;;;;;5054959;28;20345;-50
2023/10/14 08:03:31;;;;;;;;;;;14.00;99.90;;;;;;5055856;28;20033;-48
2023/10/14 08:06:05;;;;;;;8.18;1.75;;;14.20;99.90;;;;;;5054863;28;19932;-48
2023/10/14 08:08:30;;;;;;;12.55;2.10;;;14.60;99.90;;;;;;5054834;28;20069;-52
2023/10/14 08:11:00;;;;;;;7.50;1.67;;;14.80;99.90;;;;;;5054909;28;20485;-50
2023/10/14 08:13:25;;;;;;;10.30;1.33;;;15.10;99.90;;;;;;5054895;28;20085;-51
2023/10/14 08:15:52;;;;;;;9.82;1.38;;;15.30;99.90;;;;;;5054934;28;20033;-51
2023/10/14 08:18:19;;;;;;;6.65;1.30;;;15.40;98.30;;;;;;5054634;28;20032;-52
2023/10/14 08:20:45;;;;;;;7.38;1.42;;;15.70;99.00;;;;;;5054884;28;20048;-51
2023/10/14 08:23:11;;;;;;;15.82;2.22;;;16.00;97.20;;;;;;5054773;28;20037;-51
2023/10/14 08:25:39;;;;;;;7.32;1.50;;;16.30;95.50;;;;;;5054483;28;20033;-49
2023/10/14 08:28:08;;;;;;;6.72;1.48;;;16.50;93.80;;;;;;5054551;28;20049;-50
2023/10/14 08:30:45;;;;;;;7.05;1.48;;;16.80;93.90;;;;;;5054516;28;20043;-51
2023/10/14 08:33:11;;;;;;;7.90;1.83;;;17.10;92.00;;;;;;5054788;28;20028;-49
2023/10/14 08:35:41;;;;;;;3.75;1.17;;;17.30;91.40;;;;;;5054496;28;20170;-49
2023/10/14 08:38:11;;;;;;;8.77;1.50;;;17.30;89.20;;;;;;5054707;28;20090;-50
2023/10/14 08:40:37;;;;;;;5.15;1.25;;;17.30;87.20;;;;;;5054735;28;20033;-50
2023/10/14 08:43:06;;;;;;;9.20;1.90;;;17.40;85.20;;;;;;5053558;28;20354;-50
2023/10/14 08:45:39;;;;;;;4.38;1.30;;;17.70;86.20;;;;;;5054479;28;20124;-51
2023/10/14 08:48:05;;;;;;;7.82;1.27;;;17.70;83.60;;;;;;5054675;28;20044;-49
2023/10/14 08:50:34;;;;;;;9.85;1.75;;;18.00;83.20;;;;;;5054207;28;20063;-49
2023/10/14 08:53:06;;;;;;;6.47;1.48;;;18.30;76.90;;;;;;5054410;28;20111;-51
2023/10/14 08:55:36;;;;;;;7.53;1.60;;;18.30;75.60;;;;;;5054555;28;20098;-51
2023/10/14 08:58:04;;;;;;;6.55;1.67;;;18.60;71.50;;;;;;5053153;28;20098;-50
2023/10/14 09:00:30;;;;;;;7.93;1.40;;;18.70;73.70;;;;;;5055425;28;20029;-51
2023/10/14 09:02:57;;;;;;;6.22;1.58;;;18.70;66.30;;;;;;5058754;28;20045;-49
2023/10/14 09:05:25;;;;;;;5.78;1.40;;;18.60;67.30;;;;;;5057101;28;20041;-49
2023/10/14 09:07:50;;;;;;;8.95;2.28;;;18.70;67.30;;;;;;5058417;28;20083;-51
2023/10/14 09:10:18;;;;;;;4.70;1.38;;;18.20;68.00;;;;;;5058461;28;20033;-51
2023/10/14 09:12:58;;;;;;;6.35;1.70;;;17.60;74.90;;;;;;5058334;28;20049;-52
2023/10/14 09:15:27;;;;;;;11.05;1.67;;;16.70;77.60;;;;;;5057936;28;20029;-51
2023/10/14 09:17:56;;;;;;;7.07;1.60;;;15.80;84.80;;;;;;5058139;28;20036;-49
2023/10/14 09:20:35;;;;;;;5.43;1.30;;;15.80;87.10;;;;;;5057168;28;20037;-51
2023/10/14 09:23:14;;;;;;;9.77;1.60;;;16.80;83.10;;;;;;5058373;28;20033;-51
2023/10/14 09:25:50;;;;;;;8.65;1.80;;;17.80;79.00;;;;;;5058206;28;20630;-51
2023/10/14 09:28:40;;;;;;;6.18;1.73;;;18.20;72.80;;;;;;5056637;28;20090;-51
2023/10/14 09:31:08;;;;;;;;;;;18.70;70.00;;;;;;5058213;28;20060;-50
2023/10/14 09:33:43;;;;;;;9.60;2.20;;;19.20;63.40;;;;;;5057440;28;20383;-51
2023/10/14 09:36:18;;;;;;;6.00;1.35;;;19.20;63.00;;;;;;5056837;28;20165;-55
2023/10/14 09:38:48;;;;;;;6.55;1.48;;;19.00;61.50;;;;;;5057504;28;20091;-49
2023/10/14 09:41:15;;;;;;;6.57;1.85;;;18.70;63.50;;;;;;5056591;28;20043;-51
2023/10/14 09:43:46;;;;;;;9.95;1.50;;;18.70;61.50;;;;;;5057757;28;20044;-52
2023/10/14 09:46:12;;;;;;;8.20;1.67;;;18.80;61.70;;;;;;5056430;28;20033;-50
2023/10/14 09:48:43;;;;;;;5.63;1.60;;;19.30;58.00;;;;;;5057115;28;20033;-52
2023/10/14 09:51:12;;;;;;;11.25;1.83;;;19.50;57.50;;;;;;5056559;28;20100;-51
2023/10/14 09:53:38;;;;;;;10.18;2.00;;;20.00;56.10;;;;;;5057395;28;20017;-51
2023/10/14 09:56:05;;;;;;;7.45;1.75;;;20.40;50.60;;;;;;5057112;28;20037;-51
2023/10/14 09:58:35;;;;;;;7.30;1.80;;;20.50;43.00;;;;;;5056954;28;20061;-50
2023/10/14 10:01:04;;;;;;;8.57;2.30;;;20.50;43.70;;;;;;5055736;28;20366;-51
2023/10/14 10:03:38;;;;;;;13.20;4.17;;;20.60;43.30;;;;;;5057343;28;20048;-52
2023/10/14 10:06:26;;;;;;;10.43;2.20;;;20.80;43.10;;;;;;5023509;28;20610;-51
2023/10/14 10:09:06;;;;;;;9.95;2.03;;;20.90;43.00;;;;;;5056938;28;20098;-48
2023/10/14 10:11:33;;;;;;;10.10;1.77;;;21.60;39.40;;;;;;5056754;28;20040;-51
2023/10/14 10:14:02;;;;;;;7.35;1.73;;;21.60;35.80;;;;;;5039254;28;20513;-52
2023/10/14 10:16:31;;;;;;;8.18;2.40;;;21.50;35.80;;;;;;5056972;28;20091;-48
2023/10/14 10:19:01;;;;;;;9.00;1.92;;;21.60;35.20;;;;;;5056469;28;20035;-51
2023/10/14 10:21:34;;;;;;;8.60;2.45;;;21.90;31.70;;;;;;5056773;28;20112;-50
2023/10/14 10:24:02;;;;;;;10.85;1.70;;;21.00;33.50;;;;;;5056936;28;20033;-51
2023/10/14 10:26:50;;;;;;;11.90;1.88;;;19.70;38.20;;;;;;5056612;28;20103;-52
2023/10/14 10:29:21;;;;;;;7.57;1.60;;;18.00;45.20;;;;;;5056317;28;20032;-50
2023/10/14 10:32:07;;;;;;;8.63;2.35;;;16.60;53.70;;;;;;5056509;28;20055;-49
2023/10/14 10:34:33;;;;;;;9.55;1.52;;;18.30;52.00;;;;;;5056128;28;20029;-49
2023/10/14 10:37:04;;;;;;;6.97;2.10;;;19.60;44.30;;;;;;5055222;28;20454;-51
2023/10/14 10:39:30;;;;;;;7.53;1.77;;;20.60;43.30;;;;;;5056329;28;20017;-48
2023/10/14 10:41:56;;;;;;;8.40;1.85;;;20.70;38.90;;;;;;5055324;28;20107;-49
2023/10/14 10:44:24;;;;;;;6.88;1.92;;;18.90;44.70;;;;;;5055277;28;20037;-51
2023/10/14 10:46:53;;;;;;;6.95;1.45;;;19.40;47.40;;;;;;5055302;28;20071;-50
2023/10/14 10:49:51;;;;;;;5.20;1.80;;;20.50;42.60;;;;;;5039001;28;20118;-49
2023/10/14 10:52:17;;;;;;;5.95;1.23;;;21.50;37.50;;;;;;5055960;28;20053;-51
2023/10/14 10:54:43;;;;;;;5.30;1.50;;;21.50;34.60;;;;;;5055873;28;20194;-52
2023/10/14 10:57:12;;;;;;;3.33;1.30;;;22.00;34.50;;;;;;5056029;28;20033;-51
2023/10/14 10:59:38;;;;;;;5.65;1.73;;;21.20;34.50;;;;;;5056175;28;20024;-51
2023/10/14 11:02:15;;;;;;;6.15;1.30;;;19.70;39.40;;;;;;5056041;28;20036;-51
2023/10/14 11:04:42;;;;;;;6.45;1.58;;;18.50;46.60;;;;;;5055634;28;20029;-50
2023/10/14 11:07:11;;;;;;;4.95;1.30;;;18.00;49.40;;;;;;5055722;28;20052;-52
2023/10/14 11:09:40;;;;;;;;;;;17.60;51.10;;;;;;5054864;28;20025;-53
2023/10/14 11:12:10;;;;;;;6.18;1.15;;;18.10;50.50;;;;;;5055685;28;19920;-52
2023/10/14 11:14:35;;;;;;;;;;;18.10;46.30;;;;;;5055770;28;20044;-52
2023/10/14 11:17:01;;;;;;;4.05;1.05;;;18.80;49.40;;;;;;5054470;28;19916;-51
2023/10/14 11:19:30;;;;;;;6.45;1.48;;;19.30;42.10;;;;;;5054385;28;20450;-52
2023/10/14 11:21:58;;;;;;;5.65;1.38;;;20.00;45.00;;;;;;5055680;28;20087;-53
2023/10/14 11:24:24;;;;;;;3.00;0.93;;;20.70;38.10;;;;;;5054711;28;20362;-53
2023/10/14 11:26:50;;;;;;;4.60;1.15;;;21.10;36.70;;;;;;5054407;28;20106;-52
2023/10/14 11:29:16;;;;;;;3.00;1.02;;;21.50;33.20;;;;;;5055493;28;20036;-53
2023/10/14 11:31:44;;;;;;;5.95;1.27;;;21.10;33.50;;;;;;5055250;28;20033;-53
2023/10/14 11:34:13;;;;;;;5.28;1.25;;;20.10;37.30;;;;;;5055032;28;20040;-53
2023/10/14 11:36:42;;;;;;;5.57;1.30;;;19.40;42.90;;;;;;5055007;28;20037;-52
2023/10/14 11:39:14;;;;;;;2.97;1.00;;;20.70;39.80;;;;;;5037602;28;20334;-53
2023/10/14 11:41:41;;;;;;;6.80;1.13;;;21.60;35.50;;;;;;5054696;28;20100;-52
2023/10/14 11:44:07;;;;;;;3.88;1.20;;;22.00;34.30;;;;;;5055262;28;20044;-53
2023/10/14 11:46:38;;;;;;;5.32;1.23;;;22.00;32.30;;;;;;5054322;28;20033;-49
2023/10/14 11:49:08;;;;;;;4.43;1.48;;;21.80;33.20;;;;;;5054247;28;20167;-52
2023/10/14 11:51:37;;;;;;;9.85;1.60;;;21.00;31.80;;;;;;5053871;28;20037;-53
2023/10/14 11:54:03;;;;;;;4.07;1.20;;;19.40;37.90;;;;;;5054902;28;20025;-49
2023/10/14 11:56:28;;;;;;;5.20;2.00;;;20.70;36.30;;;;;;5054832;28;20082;-50
2023/10/14 11:58:54;;;;;;;3.47;1.00;;;21.30;34.50;;;;;;5054755;28;20029;-49
2023/10/14 12:01:24;;;;;;;5.05;1.00;;;21.90;32.50;;;;;;5053537;28;20055;-49
2023/10/14 12:03:49;;;;;;;3.80;1.27;;;20.90;31.10;;;;;;5054732;28;20458;-50
2023/10/14 12:06:16;;;;;;;5.75;1.08;;;20.60;33.00;;;;;;5053630;28;20056;-49
2023/10/14 12:08:42;;;;;;;6.68;1.30;;;21.50;31.90;;;;;;5054409;28;20060;-49
2023/10/14 12:11:14;;;;;;;3.20;0.90;;;22.00;30.50;;;;;;5020467;28;20366;-48
2023/10/14 12:13:40;;;;;;;5.07;1.42;;;22.70;30.10;;;;;;5053734;28;20029;-53
2023/10/14 12:16:06;;;;;;;7.50;1.00;;;23.30;28.00;;;;;;5053447;28;20127;-54
2023/10/14 12:18:37;;;;;;;5.43;1.35;;;22.40;27.80;;;;;;5054578;28;20092;-52
2023/10/14 12:21:03;;;;;;;4.78;1.50;;;22.10;30.40;;;;;;5053269;28;20083;-53
2023/10/14 12:23:31;;;;;;;2.58;1.10;;;22.70;28.20;;;;;;5054180;28;20044;-53
2023/10/14 12:26:01;;;;;;;4.80;1.80;;;22.10;29.70;;;;;;5054516;28;20037;-53
2023/10/14 12:28:30;;;;;;;;;;;21.70;31.30;;;;;;5055164;28;20024;-52
2023/10/14 12:30:58;;;;;;;4.00;1.10;;;22.10;29.80;;;;;;5054395;28;19985;-53
2023/10/14 12:33:31;;;;;;;2.72;1.30;;;20.50;34.60;;;;;;5054756;28;20048;-52
2023/10/14 12:35:57;;;;;;;4.68;1.15;;;19.70;38.60;;;;;;5053621;28;20033;-52
2023/10/14 12:38:26;;;;;;;6.82;1.50;;;18.70;38.30;;;;;;5054514;28;20197;-51
2023/10/14 12:40:52;;;;;;;4.28;1.30;;;18.30;43.30;;;;;;5054224;28;20064;-53
2023/10/14 12:44:08;;;;;;;4.07;0.75;;;19.00;43.10;;;;;;5054385;28;20037;-49
2023/10/14 12:49:02;;;;;;;4.03;1.67;;;21.80;32.30;;;;;;5057863;28;20045;-50
2023/10/14 12:51:31;;;;;;;5.05;1.40;;;22.00;28.70;;;;;;5054569;28;20057;-52
2023/10/14 12:54:01;;;;;;;6.68;1.67;;;21.00;28.80;;;;;;5054343;28;20104;-52
2023/10/14 12:56:26;;;;;;;3.22;1.70;;;21.40;30.10;;;;;;5053302;28;20037;-52
2023/10/14 12:58:52;;;;;;;4.63;1.25;;;22.20;28.50;;;;;;5054175;28;20459;-51
2023/10/14 13:01:19;;;;;;;3.40;1.10;;;22.40;28.50;;;;;;5054069;28;20025;-55
2023/10/14 13:03:46;;;;;;;2.47;1.02;;;22.50;26.70;;;;;;5054310;28;20032;-56
2023/10/14 13:06:13;;;;;;;6.10;2.10;;;22.30;27.40;;;;;;5053726;28;20103;-56
2023/10/14 13:08:39;;;;;;;4.90;1.13;;;22.30;27.90;;;;;;5053785;28;20029;-55
2023/10/14 13:11:05;;;;;;;4.28;1.17;;;21.30;28.90;;;;;;5053775;28;20422;-56
2023/10/14 13:13:31;;;;;;;4.65;0.90;;;21.10;29.40;;;;;;5054081;28;20398;-57
2023/10/14 13:15:56;;;;;;;2.90;1.00;;;20.40;30.60;;;;;;5053969;28;20439;-56
2023/10/14 13:18:24;;;;;;;4.85;1.58;;;18.50;37.80;;;;;;5052995;28;20033;-55
2023/10/14 13:20:49;;;;;;;5.07;1.40;;;17.20;46.60;;;;;;5052860;28;20037;-56
2023/10/14 13:23:15;;;;;;;3.80;1.20;;;16.60;47.70;;;;;;5053994;28;20098;-56
2023/10/14 13:25:41;;;;;;;5.05;1.30;;;16.30;52.10;;;;;;5053970;28;20044;-55
2023/10/14 13:28:11;;;;;;;3.92;1.10;;;16.10;57.00;;;;;;5052589;28;20038;-55
2023/10/14 13:30:38;;;;;;;8.00;1.30;;;15.90;55.60;;;;;;5053863;28;20029;-56
2023/10/14 13:33:05;;;;;;;3.38;1.13;;;15.60;55.40;;;;;;5053676;28;20053;-54
2023/10/14 13:35:33;;;;;;;4.88;1.70;;;15.30;60.00;;;;;;5053491;28;20033;-55